createdAt,value
2023-09-11T00:01:08.027Z,101384.75
2023-09-11T00:03:35.715Z,101383.38
2023-09-11T00:06:07.395Z,101395.38
2023-09-11T00:08:35.383Z,101389.13
2023-09-11T00:11:03.356Z,101384.13
2023-09-11T00:13:32.311Z,101386.63
2023-09-11T00:16:00.572Z,101383.22
2023-09-11T00:18:28.208Z,101390.63
2023-09-11T00:20:55.850Z,101389.53
2023-09-11T00:23:23.512Z,101382.94
2023-09-11T00:25:51.191Z,101385.84
2023-09-11T00:28:18.859Z,101389.19
2023-09-11T00:30:46.529Z,101374.81
2023-09-11T00:33:14.325Z,101382.00
2023-09-11T00:35:46.043Z,101378.56
2023-09-11T00:38:13.758Z,101379.56
2023-09-11T00:40:41.395Z,101378.69
2023-09-11T00:43:08.970Z,101375.44
2023-09-11T00:45:38.038Z,101378.34
2023-09-11T00:48:06.839Z,101379.72
2023-09-11T00:50:34.840Z,101380.47
2023-09-11T00:53:04.034Z,101377.97
2023-09-11T00:55:31.695Z,101368.75
2023-09-11T00:58:00.532Z,101373.78
2023-09-11T01:00:28.294Z,101366.59
2023-09-11T01:02:59.016Z,101364.03
2023-09-11T01:05:27.948Z,101363.88
2023-09-11T01:07:55.680Z,101358.03
2023-09-11T01:10:23.925Z,101352.72
2023-09-11T01:12:52.049Z,101354.59
2023-09-11T01:15:19.664Z,101354.13
2023-09-11T01:18:09.131Z,101357.13
2023-09-11T01:20:55.810Z,101356.78
2023-09-11T01:23:35.627Z,101356.78
2023-09-11T01:26:08.275Z,101364.13
2023-09-11T01:29:03.698Z,101356.25
2023-09-11T01:31:33.976Z,101353.69
2023-09-11T01:34:03.266Z,101354.16
2023-09-11T01:36:31.057Z,101349.94
2023-09-11T01:38:59.114Z,101351.47
2023-09-11T01:41:31.805Z,101355.22
2023-09-11T01:44:02.572Z,101350.78
2023-09-11T01:46:30.976Z,101349.78
2023-09-11T01:48:59.953Z,101343.84
2023-09-11T01:51:29.368Z,101345.81
2023-09-11T01:53:58.018Z,101349.31
2023-09-11T01:56:25.758Z,101345.56
2023-09-11T01:58:53.350Z,101344.19
2023-09-11T02:01:20.969Z,101342.00
2023-09-11T02:03:48.745Z,101338.53
2023-09-11T02:06:16.406Z,101330.13
2023-09-11T02:08:44.257Z,101331.53
2023-09-11T02:11:12.067Z,101329.97
2023-09-11T02:13:39.719Z,101329.50
2023-09-11T02:16:07.369Z,101329.25
2023-09-11T02:18:35.050Z,101332.69
2023-09-11T02:21:02.597Z,101319.50
2023-09-11T02:23:30.192Z,101318.34
2023-09-11T02:25:57.838Z,101312.16
2023-09-11T02:28:25.721Z,101315.78
2023-09-11T02:30:53.275Z,101320.28
2023-09-11T02:33:20.937Z,101316.63
2023-09-11T02:35:57.420Z,101310.94
2023-09-11T02:38:25.669Z,101316.13
2023-09-11T02:41:06.902Z,101308.63
2023-09-11T02:43:36.422Z,101312.84
2023-09-11T02:46:04.069Z,101309.41
2023-09-11T02:48:33.156Z,101313.00
2023-09-11T02:51:01.102Z,101302.94
2023-09-11T02:53:28.807Z,101303.16
2023-09-11T02:55:56.425Z,101311.19
2023-09-11T02:58:24.060Z,101302.16
2023-09-11T03:00:51.621Z,101291.84
2023-09-11T03:03:19.304Z,101298.38
2023-09-11T03:05:47.096Z,101287.03
2023-09-11T03:08:14.807Z,101289.88
2023-09-11T03:10:42.502Z,101291.19
2023-09-11T03:13:10.118Z,101291.19
2023-09-11T03:15:37.695Z,101288.53
2023-09-11T03:18:05.438Z,101285.19
2023-09-11T03:20:33.266Z,101287.63
2023-09-11T03:23:01.597Z,101282.31
2023-09-11T03:25:30.146Z,101279.69
2023-09-11T03:27:57.731Z,101280.75
2023-09-11T03:30:25.315Z,101277.44
2023-09-11T03:32:53.200Z,101274.03
2023-09-11T03:35:20.910Z,101277.59
2023-09-11T03:37:48.497Z,101275.53
2023-09-11T03:40:16.367Z,101262.47
2023-09-11T03:42:43.911Z,101263.16
2023-09-11T03:45:11.812Z,101258.56
2023-09-11T03:47:39.535Z,101255.44
2023-09-11T03:50:09.193Z,101258.56
2023-09-11T03:52:36.792Z,101253.59
2023-09-11T03:55:05.448Z,101251.69
2023-09-11T03:57:33.263Z,101245.50
2023-09-11T04:00:00.924Z,101239.19
2023-09-11T04:02:28.558Z,101239.25
2023-09-11T04:04:56.172Z,101241.09
2023-09-11T04:07:23.901Z,101237.56
2023-09-11T04:09:51.488Z,101243.00
2023-09-11T04:12:19.594Z,101240.53
2023-09-11T04:14:47.251Z,101239.81
2023-09-11T04:17:14.824Z,101238.25
2023-09-11T04:19:42.601Z,101231.53
2023-09-11T04:22:10.480Z,101242.47
2023-09-11T04:24:38.023Z,101248.44
2023-09-11T04:27:06.454Z,101236.69
2023-09-11T04:29:34.046Z,101234.66
2023-09-11T04:32:01.792Z,101232.28
2023-09-11T04:34:29.590Z,101217.50
2023-09-11T04:36:57.303Z,101228.53
2023-09-11T04:39:24.986Z,101229.81
2023-09-11T04:41:52.570Z,101224.53
2023-09-11T04:44:20.116Z,101213.38
2023-09-11T04:46:47.753Z,101215.78
2023-09-11T04:49:15.435Z,101214.94
2023-09-11T04:51:43.412Z,101216.41
2023-09-11T04:54:10.955Z,101223.22
2023-09-11T04:56:38.870Z,101222.66
2023-09-11T04:59:06.465Z,101220.72
2023-09-11T05:01:34.851Z,101230.41
2023-09-11T05:04:04.052Z,101226.81
2023-09-11T05:06:32.400Z,101226.88
2023-09-11T05:09:12.171Z,101230.09
2023-09-11T05:11:40.398Z,101231.38
2023-09-11T05:14:08.066Z,101225.28
2023-09-11T05:16:35.731Z,101228.09
2023-09-11T05:19:03.645Z,101232.41
2023-09-11T05:21:32.037Z,101228.94
2023-09-11T05:23:59.729Z,101235.59
2023-09-11T05:26:27.407Z,101225.78
2023-09-11T05:28:55.034Z,101236.22
2023-09-11T05:31:22.652Z,101238.81
2023-09-11T05:33:50.307Z,101236.00
2023-09-11T05:36:18.189Z,101236.94
2023-09-11T05:38:45.812Z,101238.38
2023-09-11T05:41:13.516Z,101241.69
2023-09-11T05:43:41.621Z,101231.09
2023-09-11T05:46:10.048Z,101236.69
2023-09-11T05:48:37.825Z,101243.81
2023-09-11T05:51:05.536Z,101249.84
2023-09-11T05:53:33.243Z,101246.56
2023-09-11T05:56:01.268Z,101248.16
2023-09-11T05:58:28.819Z,101247.34
2023-09-11T06:00:56.525Z,101256.31
2023-09-11T06:03:24.334Z,101251.56
2023-09-11T06:05:52.125Z,101251.09
2023-09-11T06:08:19.846Z,101259.56
2023-09-11T06:10:47.693Z,101263.13
2023-09-11T06:13:15.296Z,101265.25
2023-09-11T06:15:43.015Z,101266.56
2023-09-11T06:18:10.808Z,101275.16
2023-09-11T06:20:38.851Z,101272.41
2023-09-11T06:23:06.520Z,101267.38
2023-09-11T06:25:34.068Z,101268.31
2023-09-11T06:28:01.696Z,101276.91
2023-09-11T06:30:29.401Z,101273.69
2023-09-11T06:32:57.105Z,101279.56
2023-09-11T06:35:25.092Z,101277.88
2023-09-11T06:37:52.741Z,101282.38
2023-09-11T06:40:20.377Z,101272.63
2023-09-11T06:42:48.014Z,101281.22
2023-09-11T06:45:15.824Z,101280.03
2023-09-11T06:47:43.625Z,101272.69
2023-09-11T06:50:12.652Z,101264.34
2023-09-11T06:52:42.040Z,101264.78
2023-09-11T06:55:10.192Z,101262.84
2023-09-11T06:57:43.407Z,101256.03
2023-09-11T07:00:15.972Z,101263.31
2023-09-11T07:02:49.092Z,101261.50
2023-09-11T07:05:21.384Z,101256.03
2023-09-11T07:07:49.467Z,101245.50
2023-09-11T07:10:30.117Z,101240.94
2023-09-11T07:13:02.306Z,101255.81
2023-09-11T07:15:30.035Z,101249.25
2023-09-11T07:17:57.817Z,101256.50
2023-09-11T07:20:25.492Z,101258.59
2023-09-11T07:22:53.195Z,101244.19
2023-09-11T07:25:24.014Z,101244.00
2023-09-11T07:27:52.055Z,101244.22
2023-09-11T07:30:19.682Z,101251.25
2023-09-11T07:32:47.415Z,101246.13
2023-09-11T07:35:15.208Z,101250.25
2023-09-11T07:37:42.913Z,101257.00
2023-09-11T07:40:11.062Z,101248.72
2023-09-11T07:42:38.649Z,101256.59
2023-09-11T07:45:07.676Z,101260.19
2023-09-11T07:47:35.612Z,101273.34
2023-09-11T07:50:03.295Z,101249.75
2023-09-11T07:52:30.905Z,101264.19
2023-09-11T07:55:00.042Z,101265.13
2023-09-11T07:57:27.716Z,101271.78
2023-09-11T07:59:55.419Z,101275.28
2023-09-11T08:02:23.052Z,101267.34
2023-09-11T08:04:51.052Z,101271.13
2023-09-11T08:07:18.755Z,101282.06
2023-09-11T08:09:47.626Z,101274.75
2023-09-11T08:12:16.358Z,101272.47
2023-09-11T08:14:44.515Z,101267.63
2023-09-11T08:17:13.302Z,101276.22
2023-09-11T08:19:41.126Z,101278.41
2023-09-11T08:22:08.853Z,101275.84
2023-09-11T08:24:36.513Z,101279.16
2023-09-11T08:27:04.191Z,101283.97
2023-09-11T08:29:31.846Z,101276.50
2023-09-11T08:31:59.514Z,101283.38
2023-09-11T08:34:27.137Z,101278.78
2023-09-11T08:36:54.856Z,101276.41
2023-09-11T08:39:22.495Z,101284.22
2023-09-11T08:41:51.990Z,101279.22
2023-09-11T08:44:19.650Z,101294.06
2023-09-11T08:46:48.067Z,101287.97
2023-09-11T08:49:23.018Z,101291.53
2023-09-11T08:51:55.418Z,101281.16
2023-09-11T08:54:30.406Z,101280.16
2023-09-11T08:56:59.324Z,101287.81
2023-09-11T08:59:31.027Z,101278.59
2023-09-11T09:01:59.811Z,101277.59
2023-09-11T09:04:28.241Z,101282.28
2023-09-11T09:06:56.760Z,101279.34
2023-09-11T09:09:24.985Z,101271.53
2023-09-11T09:11:53.505Z,101286.25
2023-09-11T09:14:21.820Z,101284.06
2023-09-11T09:16:50.253Z,101280.69
2023-09-11T09:19:17.942Z,101284.34
2023-09-11T09:22:03.661Z,101290.31
2023-09-11T09:24:31.251Z,101286.97
2023-09-11T09:27:00.325Z,101280.03
2023-09-11T09:29:28.503Z,101282.84
2023-09-11T09:31:57.203Z,101284.78
2023-09-11T09:34:24.910Z,101252.25
2023-09-11T09:36:57.119Z,101271.41
2023-09-11T09:39:29.274Z,101271.00
2023-09-11T09:41:59.194Z,101275.16
2023-09-11T09:44:37.487Z,101273.13
2023-09-11T09:47:08.930Z,101277.50
2023-09-11T09:49:43.644Z,101272.44
2023-09-11T09:52:11.211Z,101273.84
2023-09-11T09:54:50.463Z,101279.69
2023-09-11T09:57:21.880Z,101274.28
2023-09-11T09:59:51.144Z,101270.16
2023-09-11T10:02:30.948Z,101261.28
2023-09-11T10:05:04.113Z,101274.44
2023-09-11T10:07:43.026Z,101270.63
2023-09-11T10:10:31.236Z,101268.31
2023-09-11T10:13:11.239Z,101273.22
2023-09-11T10:15:40.274Z,101278.41
2023-09-11T10:18:10.558Z,101271.63
2023-09-11T10:20:38.626Z,101273.59
2023-09-11T10:23:08.006Z,101262.03
2023-09-11T10:25:41.105Z,101269.94
2023-09-11T10:28:10.599Z,101263.38
2023-09-11T10:31:08.189Z,101271.03
2023-09-11T10:33:38.245Z,101266.28
2023-09-11T10:36:12.430Z,101261.69
2023-09-11T10:38:40.863Z,101259.25
2023-09-11T10:41:10.806Z,101259.59
2023-09-11T10:43:39.107Z,101258.03
2023-09-11T10:46:33.470Z,101254.34
2023-09-11T10:49:01.836Z,101257.75
2023-09-11T10:51:30.766Z,101246.72
2023-09-11T10:53:58.498Z,101255.97
2023-09-11T10:56:26.298Z,101249.59
2023-09-11T10:58:54.402Z,101241.84
2023-09-11T11:01:24.038Z,101245.34
2023-09-11T11:03:52.276Z,101240.34
2023-09-11T11:06:24.794Z,101226.31
2023-09-11T11:08:52.982Z,101244.00
2023-09-11T11:11:23.572Z,101237.69
2023-09-11T11:14:16.000Z,101240.09
2023-09-11T11:17:09.467Z,101239.03
2023-09-11T11:19:40.655Z,101250.72
2023-09-11T11:22:10.280Z,101239.63
2023-09-11T11:24:56.279Z,101247.81
2023-09-11T11:27:24.828Z,101251.88
2023-09-11T11:29:54.193Z,101252.47
2023-09-11T11:32:25.693Z,101246.66
2023-09-11T11:34:53.602Z,101245.72
2023-09-11T11:37:22.859Z,101241.16
2023-09-11T11:39:51.037Z,101254.13
2023-09-11T11:42:19.696Z,101251.56
2023-09-11T11:44:47.550Z,101259.94
2023-09-11T11:47:17.050Z,101259.81
2023-09-11T11:49:46.509Z,101266.84
2023-09-11T11:52:14.261Z,101257.75
2023-09-11T11:54:43.242Z,101252.66
2023-09-11T11:57:11.011Z,101256.47
2023-09-11T11:59:43.143Z,101263.94
2023-09-11T12:02:26.726Z,101255.53
2023-09-11T12:04:56.259Z,101268.72
2023-09-11T12:07:25.344Z,101257.63
2023-09-11T12:09:53.249Z,101244.03
2023-09-11T12:12:21.850Z,101269.44
2023-09-11T12:14:49.631Z,101261.13
2023-09-11T12:17:17.278Z,101259.94
2023-09-11T12:19:44.943Z,101251.31
2023-09-11T12:22:12.600Z,101255.03
2023-09-11T12:24:40.291Z,101249.19
2023-09-11T12:27:08.697Z,101258.03
2023-09-11T12:29:36.613Z,101264.09
2023-09-11T12:32:04.381Z,101266.88
2023-09-11T12:34:50.459Z,101271.38
2023-09-11T12:37:18.162Z,101271.59
2023-09-11T12:39:45.864Z,101278.81
2023-09-11T12:42:14.785Z,101278.03
2023-09-11T12:44:43.259Z,101278.91
2023-09-11T12:47:11.005Z,101284.59
2023-09-11T12:49:39.123Z,101271.59
2023-09-11T12:52:07.307Z,101279.16
2023-09-11T12:54:34.968Z,101282.34
2023-09-11T12:57:03.247Z,101275.47
2023-09-11T12:59:31.035Z,101277.81
2023-09-11T13:01:59.628Z,101273.63
2023-09-11T13:04:30.592Z,101266.81
2023-09-11T13:06:58.261Z,101272.47
2023-09-11T13:09:26.318Z,101277.28
2023-09-11T13:11:53.979Z,101276.28
2023-09-11T13:14:21.619Z,101273.50
2023-09-11T13:16:49.515Z,101265.09
2023-09-11T13:19:18.252Z,101278.06
2023-09-11T13:21:46.147Z,101276.13
2023-09-11T13:24:13.977Z,101277.28
2023-09-11T13:26:43.615Z,101282.38
2023-09-11T13:29:11.386Z,101283.50
2023-09-11T13:31:39.000Z,101283.19
2023-09-11T13:34:06.839Z,101289.81
2023-09-11T13:36:34.743Z,101285.88
2023-09-11T13:39:02.569Z,101275.66
2023-09-11T13:41:30.254Z,101277.66
2023-09-11T13:43:57.813Z,101275.91
2023-09-11T13:46:25.545Z,101288.41
2023-09-11T13:48:53.338Z,101276.72
2023-09-11T13:51:21.009Z,101275.47
2023-09-11T13:53:48.721Z,101283.38
2023-09-11T13:56:16.400Z,101282.44
2023-09-11T13:58:45.368Z,101283.22
2023-09-11T14:01:15.225Z,101282.72
2023-09-11T14:03:42.947Z,101283.59
2023-09-11T14:06:10.762Z,101286.38
2023-09-11T14:08:38.501Z,101292.50
2023-09-11T14:11:06.100Z,101300.53
2023-09-11T14:13:33.654Z,101300.91
2023-09-11T14:16:01.278Z,101295.34
2023-09-11T14:18:29.280Z,101301.09
2023-09-11T14:20:57.064Z,101306.28
2023-09-11T14:23:24.749Z,101296.19
2023-09-11T14:25:52.352Z,101298.28
2023-09-11T14:28:19.958Z,101293.78
2023-09-11T14:30:47.840Z,101300.16
2023-09-11T14:33:15.652Z,101309.44
2023-09-11T14:35:43.279Z,101310.53
2023-09-11T14:38:10.962Z,101320.78
2023-09-11T14:40:38.885Z,101302.78
2023-09-11T14:43:06.470Z,101294.47
2023-09-11T14:45:34.037Z,101302.47
2023-09-11T14:48:01.769Z,101295.41
2023-09-11T14:50:29.407Z,101295.97
2023-09-11T14:52:56.992Z,101291.59
2023-09-11T14:55:24.916Z,101292.28
2023-09-11T14:57:52.555Z,101299.72
2023-09-11T15:00:20.335Z,101314.00
2023-09-11T15:02:48.081Z,101311.03
2023-09-11T15:05:15.909Z,101313.38
2023-09-11T15:07:43.784Z,101322.16
2023-09-11T15:10:12.091Z,101320.84
2023-09-11T15:12:39.625Z,101308.72
2023-09-11T15:15:07.976Z,101314.06
2023-09-11T15:17:35.733Z,101323.66
2023-09-11T15:20:03.445Z,101325.56
2023-09-11T15:22:31.004Z,101330.88
2023-09-11T15:24:59.738Z,101323.19
2023-09-11T15:27:27.469Z,101320.72
2023-09-11T15:29:55.043Z,101302.66
2023-09-11T15:32:22.673Z,101319.50
2023-09-11T15:34:51.049Z,101315.97
2023-09-11T15:37:19.328Z,101316.28
2023-09-11T15:39:48.389Z,101311.09
2023-09-11T15:42:16.026Z,101310.34
2023-09-11T15:44:43.664Z,101316.28
2023-09-11T15:47:11.316Z,101316.13
2023-09-11T15:49:39.635Z,101317.28
2023-09-11T15:52:07.719Z,101302.22
2023-09-11T15:54:35.578Z,101314.16
2023-09-11T15:57:03.435Z,101318.97
2023-09-11T15:59:31.525Z,101320.38
2023-09-11T16:01:59.420Z,101325.22
2023-09-11T16:04:27.294Z,101322.72
2023-09-11T16:06:55.654Z,101308.13
2023-09-11T16:09:23.410Z,101300.69
2023-09-11T16:11:52.228Z,101303.25
2023-09-11T16:14:20.121Z,101306.84
2023-09-11T16:16:51.496Z,101301.94
2023-09-11T16:19:22.330Z,101293.56
2023-09-11T16:21:50.462Z,101281.13
2023-09-11T16:24:18.419Z,101285.81
2023-09-11T16:26:46.145Z,101284.00
2023-09-11T16:29:14.912Z,101287.53
2023-09-11T16:31:42.670Z,101269.44
2023-09-11T16:34:11.624Z,101265.16
2023-09-11T16:36:39.927Z,101272.50
2023-09-11T16:39:07.720Z,101264.44
2023-09-11T16:41:35.656Z,101250.06
2023-09-11T16:44:03.366Z,101232.44
2023-09-11T16:46:31.061Z,101232.88
2023-09-11T16:48:58.740Z,101223.38
2023-09-11T16:51:26.531Z,101226.28
2023-09-11T16:53:54.233Z,101234.81
2023-09-11T16:56:21.927Z,101226.00
2023-09-11T16:58:49.610Z,101229.19
2023-09-11T17:01:19.378Z,101226.19
2023-09-11T17:03:47.105Z,101232.22
2023-09-11T17:06:14.711Z,101233.59
2023-09-11T17:08:42.685Z,101236.69
2023-09-11T17:11:10.420Z,101246.59
2023-09-11T17:13:38.023Z,101237.53
2023-09-11T17:16:05.841Z,101250.88
2023-09-11T17:18:33.583Z,101258.09
2023-09-11T17:21:05.585Z,101263.41
2023-09-11T17:23:33.018Z,101267.16
2023-09-11T17:26:00.641Z,101268.19
2023-09-11T17:28:28.275Z,101268.97
2023-09-11T17:30:55.922Z,101272.97
2023-09-11T17:33:23.709Z,101266.06
2023-09-11T17:35:51.529Z,101270.34
2023-09-11T17:38:19.547Z,101278.56
2023-09-11T17:40:47.093Z,101282.34
2023-09-11T17:43:14.757Z,101292.38
2023-09-11T17:45:42.336Z,101287.06
2023-09-11T17:48:10.640Z,101296.56
2023-09-11T17:50:38.363Z,101297.56
2023-09-11T17:53:05.993Z,101285.81
2023-09-11T17:55:33.551Z,101300.41
2023-09-11T17:58:01.153Z,101298.69
2023-09-11T18:00:28.917Z,101306.91
2023-09-11T18:02:56.705Z,101310.22
2023-09-11T18:05:24.340Z,101310.50
2023-09-11T18:07:51.996Z,101310.88
2023-09-11T18:10:19.621Z,101318.03
2023-09-11T18:12:47.198Z,101310.06
2023-09-11T18:15:14.965Z,101295.88
2023-09-11T18:17:43.817Z,101304.13
2023-09-11T18:20:12.142Z,101307.41
2023-09-11T18:22:39.701Z,101316.34
2023-09-11T18:25:07.386Z,101315.47
2023-09-11T18:27:36.979Z,101327.06
2023-09-11T18:30:05.653Z,101311.09
2023-09-11T18:32:33.327Z,101308.56
2023-09-11T18:35:01.028Z,101309.22
2023-09-11T18:37:28.672Z,101303.41
2023-09-11T18:39:56.445Z,101309.34
2023-09-11T18:42:24.087Z,101302.16
2023-09-11T18:44:51.785Z,101313.66
2023-09-11T18:47:19.351Z,101315.34
2023-09-11T18:49:46.943Z,101323.25
2023-09-11T18:52:14.773Z,101324.94
2023-09-11T18:54:43.541Z,101337.91
2023-09-11T18:57:11.488Z,101337.13
2023-09-11T18:59:39.056Z,101340.09
2023-09-11T19:02:07.197Z,101342.91
2023-09-11T19:04:34.888Z,101344.91
2023-09-11T19:07:02.538Z,101343.22
2023-09-11T19:09:31.242Z,101338.53
2023-09-11T19:11:58.920Z,101337.72
2023-09-11T19:14:27.057Z,101334.78
2023-09-11T19:16:54.778Z,101354.59
2023-09-11T19:19:22.388Z,101342.81
2023-09-11T19:21:49.950Z,101328.25
2023-09-11T19:24:17.598Z,101322.63
2023-09-11T19:26:45.283Z,101317.81
2023-09-11T19:29:13.310Z,101324.34
2023-09-11T19:31:40.989Z,101328.72
2023-09-11T19:34:08.835Z,101328.16
2023-09-11T19:36:36.551Z,101340.50
2023-09-11T19:39:04.542Z,101350.25
2023-09-11T19:41:32.370Z,101357.13
2023-09-11T19:43:59.909Z,101348.81
2023-09-11T19:46:27.594Z,101346.66
2023-09-11T19:48:55.303Z,101355.56
2023-09-11T19:51:25.432Z,101354.41
2023-09-11T19:53:53.096Z,101353.38
2023-09-11T19:56:21.662Z,101349.53
2023-09-11T19:58:49.290Z,101352.97
2023-09-11T20:01:17.946Z,101334.94
2023-09-11T20:03:45.671Z,101328.22
2023-09-11T20:06:14.689Z,101338.97
2023-09-11T20:08:42.693Z,101335.06
2023-09-11T20:11:10.493Z,101342.09
2023-09-11T20:13:38.052Z,101336.53
2023-09-11T20:16:05.810Z,101328.97
2023-09-11T20:18:34.622Z,101327.25
2023-09-11T20:21:02.984Z,101317.41
2023-09-11T20:23:30.666Z,101319.50
2023-09-11T20:25:58.284Z,101328.72
2023-09-11T20:28:25.925Z,101329.16
2023-09-11T20:30:53.521Z,101331.88
2023-09-11T20:33:21.170Z,101325.59
2023-09-11T20:35:48.932Z,101334.59
2023-09-11T20:38:21.459Z,101330.19
2023-09-11T20:40:52.152Z,101331.31
2023-09-11T20:43:19.700Z,101342.56
2023-09-11T20:45:47.321Z,101346.22
2023-09-11T20:48:15.013Z,101347.66
2023-09-11T20:50:42.593Z,101361.03
2023-09-11T20:53:10.161Z,101373.69
2023-09-11T20:55:37.703Z,101378.06
2023-09-11T20:58:05.919Z,101403.72
2023-09-11T21:00:33.774Z,101408.69
2023-09-11T21:03:01.478Z,101389.69
2023-09-11T21:05:29.195Z,101365.34
2023-09-11T21:07:57.519Z,101390.38
2023-09-11T21:10:25.174Z,101406.47
2023-09-11T21:12:57.972Z,101409.97
2023-09-11T21:15:27.530Z,101404.94
2023-09-11T21:17:55.474Z,101416.53
2023-09-11T21:20:23.224Z,101422.94
2023-09-11T21:22:50.850Z,101417.00
2023-09-11T21:25:18.473Z,101417.81
2023-09-11T21:27:46.462Z,101412.53
2023-09-11T21:30:14.271Z,101401.47
2023-09-11T21:32:41.931Z,101390.28
2023-09-11T21:35:09.736Z,101373.94
2023-09-11T21:37:37.321Z,101382.75
2023-09-11T21:40:06.180Z,101381.28
2023-09-11T21:42:34.098Z,101368.22
2023-09-11T21:45:01.953Z,101371.50
2023-09-11T21:47:29.627Z,101385.25
2023-09-11T21:49:57.242Z,101393.72
2023-09-11T21:52:25.024Z,101385.13
2023-09-11T21:54:52.576Z,101387.09
2023-09-11T21:57:20.197Z,101402.66
2023-09-11T21:59:48.171Z,101411.19
2023-09-11T22:02:16.557Z,101420.19
2023-09-11T22:04:44.268Z,101406.03
2023-09-11T22:07:12.044Z,101392.78
2023-09-11T22:09:40.087Z,101398.38
2023-09-11T22:12:07.848Z,101414.91
2023-09-11T22:14:35.459Z,101404.44
2023-09-11T22:17:03.046Z,101401.00
2023-09-11T22:19:30.594Z,101387.50
2023-09-11T22:21:58.286Z,101378.50
2023-09-11T22:24:25.975Z,101373.22
2023-09-11T22:26:53.976Z,101366.34
2023-09-11T22:29:21.656Z,101376.91
2023-09-11T22:31:50.415Z,101358.66
2023-09-11T22:34:18.086Z,101367.81
2023-09-11T22:36:45.775Z,101369.03
2023-09-11T22:39:13.424Z,101352.47
2023-09-11T22:41:41.048Z,101353.38
2023-09-11T22:44:08.700Z,101353.94
2023-09-11T22:46:36.658Z,101358.53
2023-09-11T22:49:04.402Z,101359.84
2023-09-11T22:51:32.067Z,101345.59
2023-09-11T22:53:59.656Z,101348.72
2023-09-11T22:56:27.285Z,101340.63
2023-09-11T22:58:54.816Z,101332.63
2023-09-11T23:01:28.030Z,101334.78
2023-09-11T23:03:56.107Z,101342.50
2023-09-11T23:06:23.836Z,101331.13
2023-09-11T23:08:51.376Z,101335.16
2023-09-11T23:11:18.907Z,101334.38
2023-09-11T23:13:46.491Z,101337.09
2023-09-11T23:16:14.082Z,101344.34
2023-09-11T23:18:41.946Z,101352.16
2023-09-11T23:21:13.748Z,101362.06
2023-09-11T23:23:46.029Z,101359.38
2023-09-11T23:26:13.707Z,101366.13
2023-09-11T23:28:41.645Z,101368.16
2023-09-11T23:31:09.545Z,101357.28
2023-09-11T23:33:37.465Z,101360.84
2023-09-11T23:36:05.722Z,101364.75
2023-09-11T23:38:33.347Z,101361.34
2023-09-11T23:41:01.047Z,101357.06
2023-09-11T23:43:36.446Z,101354.44
2023-09-11T23:46:05.209Z,101336.66
2023-09-11T23:48:33.443Z,101353.13
2023-09-11T23:51:01.361Z,101355.09
2023-09-11T23:53:29.049Z,101355.66
2023-09-11T23:55:56.659Z,101351.03
2023-09-11T23:58:24.427Z,101356.31
